Time;durP1;ratioP1;P1;durP2;ratioP2;P2;SDS_P1;SDS_P2;PMS_P1;PMS_P2;Temp;Humidity;BMP_temperature;BMP_pressure;BME280_temperature;BME280_humidity;BME280_pressure;Samples;Min_cycle;Max_cycle;Signal;HPM_P1;HPM_P2
2023/12/04 00:01:14;;;;;;;12.17;7.90;;;;;;;-3.78;77.61;95486.72;4961876;28;20646;-82
2023/12/04 00:03:40;;;;;;;11.80;8.00;;;;;;;-3.76;77.92;95485.78;4962016;28;20259;-82
2023/12/04 00:06:05;;;;;;;11.10;7.30;;;;;;;-3.74;77.81;95478.09;4961260;28;20193;-82
2023/12/04 00:08:31;;;;;;;12.53;7.73;;;;;;;-3.83;77.82;95474.22;4959837;28;20188;-82
2023/12/04 00:10:57;;;;;;;12.70;8.00;;;;;;;-3.82;78.02;95472.50;4950719;28;20184;-82
2023/12/04 00:13:22;;;;;;;11.30;7.93;;;;;;;-3.82;77.86;95475.03;4958122;28;20211;-82
2023/12/04 00:15:48;;;;;;;13.27;8.30;;;;;;;-3.83;77.83;95466.59;4955584;28;20185;-81
2023/12/04 00:18:13;;;;;;;11.17;7.53;;;;;;;-3.75;77.44;95458.69;4941878;28;20188;-82
2023/12/04 00:20:38;;;;;;;14.40;8.47;;;;;;;-3.81;77.78;95461.47;4959443;28;20693;-81
2023/12/04 00:23:03;;;;;;;12.43;7.87;;;;;;;-3.83;77.71;95459.00;4946901;28;20205;-82
2023/12/04 00:25:29;;;;;;;12.17;7.97;;;;;;;-3.84;77.43;95459.06;4958283;28;20393;-82
2023/12/04 00:27:54;;;;;;;12.77;8.70;;;;;;;-3.83;77.72;95458.16;4937307;28;20193;-81
2023/12/04 00:30:19;;;;;;;11.47;7.57;;;;;;;-4.00;78.37;95446.19;4956907;28;20298;-81
2023/12/04 00:32:45;;;;;;;10.23;6.73;;;;;;;-3.97;78.33;95442.72;4940777;28;20205;-81
2023/12/04 00:35:10;;;;;;;12.93;7.77;;;;;;;-3.97;78.33;95435.94;4947731;28;20219;-80
2023/12/04 00:37:39;;;;;;;13.37;7.67;;;;;;;-4.00;78.64;95428.41;4963163;28;20267;-81
2023/12/04 00:40:06;;;;;;;14.43;8.50;;;;;;;-3.86;78.02;95431.22;4942550;28;20196;-82
2023/12/04 00:42:31;;;;;;;12.47;7.53;;;;;;;-3.87;77.95;95431.28;4952886;28;20602;-83
2023/12/04 00:44:57;;;;;;;11.80;7.63;;;;;;;-3.94;78.69;95430.72;4956765;28;20181;-80
2023/12/04 00:47:22;;;;;;;13.07;7.27;;;;;;;-3.84;78.38;95431.16;4953239;28;20658;-81
2023/12/04 00:49:47;;;;;;;11.53;7.37;;;;;;;-3.77;78.02;95433.38;4939431;28;20193;-81
2023/12/04 00:52:13;;;;;;;14.40;7.60;;;;;;;-3.77;78.09;95433.38;4955965;28;20223;-82
2023/12/04 00:54:42;;;;;;;12.23;6.77;;;;;;;-3.72;77.94;95426.38;4973828;28;20224;-81
2023/12/04 00:57:07;;;;;;;10.13;6.33;;;;;;;-3.63;78.31;95429.41;4953713;28;20201;-81
2023/12/04 00:59:33;;;;;;;11.77;6.50;;;;;;;-3.63;77.75;95429.41;4958064;28;20189;-81
2023/12/04 01:01:58;;;;;;;10.43;6.57;;;;;;;-3.61;77.98;95417.50;4968551;28;20272;-81
2023/12/04 01:04:23;;;;;;;10.40;6.07;;;;;;;-3.61;77.82;95415.78;4963562;28;20692;-81
2023/12/04 01:06:49;;;;;;;10.43;6.30;;;;;;;-3.60;77.36;95419.16;4954230;28;20667;-82
2023/12/04 01:09:14;;;;;;;9.90;6.17;;;;;;;-3.46;76.97;95411.75;4930369;28;20548;-82
2023/12/04 01:11:39;;;;;;;9.60;6.27;;;;;;;-3.51;76.79;95411.97;4951944;28;20287;-80
2023/12/04 01:14:05;;;;;;;11.47;6.87;;;;;;;-3.42;76.74;95409.03;4961018;28;20216;-82
2023/12/04 01:16:30;;;;;;;9.37;5.97;;;;;;;-3.47;76.36;95410.94;4939595;28;20196;-80
2023/12/04 01:18:56;;;;;;;9.07;5.50;;;;;;;-3.33;76.40;95395.09;4963917;28;20196;-81
2023/12/04 01:21:21;;;;;;;8.30;5.53;;;;;;;-3.37;75.29;95392.75;4955801;28;20192;-80
2023/12/04 01:23:47;;;;;;;7.00;5.60;;;;;;;-3.28;75.51;95379.66;4956386;28;20220;-82
2023/12/04 01:26:12;;;;;;;6.17;5.23;;;;;;;-3.33;75.45;95391.75;4942397;28;20278;-81
2023/12/04 01:28:37;;;;;;;8.00;5.30;;;;;;;-3.24;75.32;95388.78;4940559;28;20213;-81
2023/12/04 01:31:03;;;;;;;7.23;5.37;;;;;;;-3.22;75.77;95394.63;4959643;28;20196;-81
2023/12/04 01:33:29;;;;;;;6.93;5.17;;;;;;;-3.31;75.70;95389.94;4975445;28;20727;-80
2023/12/04 01:35:55;;;;;;;7.13;5.20;;;;;;;-3.27;75.84;95383.81;4945462;28;20196;-80
2023/12/04 01:38:20;;;;;;;8.00;5.50;;;;;;;-3.16;75.74;95377.41;4939300;28;20189;-81
2023/12/04 01:40:46;;;;;;;7.30;4.93;;;;;;;-3.25;75.54;95380.34;4959707;28;20263;-81
2023/12/04 01:43:11;;;;;;;8.40;5.40;;;;;;;-3.27;75.43;95379.59;4950308;28;20212;-80
2023/12/04 01:45:36;;;;;;;7.43;4.83;;;;;;;-3.43;75.74;95376.09;4959547;28;20219;-80
2023/12/04 01:48:02;;;;;;;8.03;5.67;;;;;;;-3.38;75.49;95373.34;4943317;28;20239;-80
2023/12/04 01:50:28;;;;;;;8.43;5.37;;;;;;;-3.21;75.13;95365.78;4959220;28;20717;-80
2023/12/04 01:52:53;;;;;;;8.30;5.73;;;;;;;-3.24;75.07;95366.75;4942436;28;20225;-80
2023/12/04 01:55:19;;;;;;;9.80;5.93;;;;;;;-3.19;74.46;95364.81;4959715;28;20276;-81
2023/12/04 01:57:45;;;;;;;9.03;5.33;;;;;;;-3.26;74.76;95363.47;4959371;28;20192;-80
2023/12/04 02:00:12;;;;;;;7.93;4.93;;;;;;;-3.23;74.32;95362.50;4940430;28;20195;-79
2023/12/04 02:02:42;;;;;;;9.40;5.40;;;;;;;-3.26;74.22;95360.94;4957771;28;20185;-80
2023/12/04 02:05:08;;;;;;;8.23;5.33;;;;;;;-3.38;74.83;95363.19;4958266;28;20199;-80
2023/12/04 02:07:36;;;;;;;8.27;5.60;;;;;;;-3.32;74.98;95366.28;4968112;28;20335;-81
2023/12/04 02:10:03;;;;;;;8.70;5.87;;;;;;;-3.32;75.10;95362.91;4943684;28;20563;-81
2023/12/04 02:12:28;;;;;;;9.27;5.70;;;;;;;-3.44;75.41;95360.03;4975043;28;20212;-81
2023/12/04 02:14:54;;;;;;;9.67;5.77;;;;;;;-3.43;75.33;95360.84;4948482;28;20189;-79
2023/12/04 02:17:22;;;;;;;8.30;5.37;;;;;;;-3.45;75.50;95358.38;4942395;28;20216;-79
2023/12/04 02:19:47;;;;;;;8.63;5.77;;;;;;;-3.52;75.13;95356.19;4958905;28;20191;-81
2023/12/04 02:22:12;;;;;;;8.00;5.43;;;;;;;-3.47;75.49;95351.72;4967636;28;20188;-81
2023/12/04 02:24:38;;;;;;;8.13;5.90;;;;;;;-3.59;75.92;95349.72;4959001;28;20212;-80
2023/12/04 02:27:23;;;;;;;8.37;5.07;;;;;;;-3.52;76.11;95341.78;4958317;28;20196;-80
2023/12/04 02:30:11;;;;;;;8.93;6.37;;;;;;;-3.48;75.27;95332.31;4942975;28;20565;-80
2023/12/04 02:32:46;;;;;;;7.93;5.40;;;;;;;-3.53;75.51;95331.69;4956299;28;20297;-79
2023/12/04 02:35:12;;;;;;;7.33;5.33;;;;;;;-3.51;76.08;95329.91;4941692;28;20179;-81
2023/12/04 02:37:39;;;;;;;8.13;4.97;;;;;;;-3.58;75.56;95323.44;4946364;28;20208;-79
2023/12/04 02:40:06;;;;;;;7.93;5.47;;;;;;;-3.44;75.03;95321.13;4946163;28;20181;-81
2023/12/04 02:42:32;;;;;;;9.60;4.73;;;;;;;-3.57;75.50;95314.94;4959278;28;20639;-81
2023/12/04 02:44:57;;;;;;;7.03;4.80;;;;;;;-3.46;74.80;95311.03;4950226;28;20215;-81
2023/12/04 02:47:22;;;;;;;6.70;4.40;;;;;;;-3.51;75.21;95305.34;4957621;28;20722;-81
2023/12/04 02:49:48;;;;;;;6.90;4.90;;;;;;;-3.44;75.10;95300.81;4959961;28;20312;-81
2023/12/04 02:52:13;;;;;;;7.43;4.57;;;;;;;-3.28;73.92;95295.84;4958270;28;20231;-82
2023/12/04 02:54:39;;;;;;;7.20;4.40;;;;;;;-3.37;74.10;95308.97;4958329;28;20217;-81
2023/12/04 02:57:04;;;;;;;9.57;5.30;;;;;;;-3.33;74.01;95302.88;4965405;28;20194;-81
2023/12/04 02:59:29;;;;;;;7.87;4.70;;;;;;;-3.40;74.60;95293.88;4958912;28;20227;-81
2023/12/04 03:01:55;;;;;;;6.00;4.73;;;;;;;-3.24;73.98;95289.75;4951572;28;20255;-81
2023/12/04 03:04:20;;;;;;;7.07;4.80;;;;;;;-3.32;74.40;95284.19;4960364;28;20262;-81
2023/12/04 03:06:46;;;;;;;7.10;4.40;;;;;;;-3.31;74.83;95279.03;4957352;28;20177;-83
2023/12/04 03:09:11;;;;;;;7.53;5.37;;;;;;;-3.36;74.97;95278.41;4957260;28;20671;-81
2023/12/04 03:11:40;;;;;;;8.33;5.50;;;;;;;-3.42;75.21;95279.53;4958365;28;20208;-81
2023/12/04 03:14:06;;;;;;;8.67;4.97;;;;;;;-3.37;75.02;95269.16;4945530;28;20229;-82
2023/12/04 03:16:31;;;;;;;9.00;6.67;;;;;;;-3.39;75.05;95260.78;4957346;28;20627;-81
2023/12/04 03:18:57;;;;;;;8.17;5.10;;;;;;;-3.41;74.65;95260.06;4968541;28;20185;-81
2023/12/04 03:21:22;;;;;;;5.73;4.73;;;;;;;-3.37;74.96;95258.19;4951090;28;20686;-81
2023/12/04 03:23:48;;;;;;;7.33;4.93;;;;;;;-3.44;74.46;95252.59;4941924;28;20579;-81
2023/12/04 03:26:13;;;;;;;7.93;4.80;;;;;;;-3.46;74.72;95251.81;4961636;28;20192;-83
2023/12/04 03:28:40;;;;;;;7.40;4.80;;;;;;;-3.38;74.63;95242.13;4958368;28;20196;-81
2023/12/04 03:31:05;;;;;;;9.03;5.40;;;;;;;-3.28;74.62;95240.78;4949097;28;20203;-83
2023/12/04 03:33:31;;;;;;;7.50;4.83;;;;;;;-3.27;74.36;95244.16;4973394;28;20278;-82
2023/12/04 03:35:56;;;;;;;7.73;5.10;;;;;;;-3.40;75.33;95245.63;4939454;28;20214;-81
2023/12/04 03:38:21;;;;;;;6.97;5.00;;;;;;;-3.31;75.07;95240.94;4957275;28;20212;-81
2023/12/04 03:40:47;;;;;;;8.60;5.57;;;;;;;-3.30;74.74;95234.97;4957872;28;20184;-81
2023/12/04 03:43:12;;;;;;;8.90;5.07;;;;;;;-3.22;74.51;95240.53;4957810;28;20204;-81
2023/12/04 03:45:37;;;;;;;8.73;5.33;;;;;;;-3.32;74.50;95239.31;4957924;28;20188;-82
2023/12/04 03:48:03;;;;;;;7.90;4.80;;;;;;;-3.45;74.44;95236.50;4964325;28;20275;-80
2023/12/04 03:50:28;;;;;;;6.97;4.80;;;;;;;-3.27;74.17;95239.94;4974866;28;20188;-81
2023/12/04 03:52:54;;;;;;;7.63;4.90;;;;;;;-3.35;74.38;95236.09;4965810;28;20217;-82
2023/12/04 03:55:19;;;;;;;7.47;4.47;;;;;;;-3.33;74.19;95242.75;4957226;28;20282;-81
2023/12/04 03:57:45;;;;;;;8.60;5.40;;;;;;;-3.22;73.55;95243.06;4941559;28;20212;-81
2023/12/04 04:00:11;;;;;;;6.73;4.70;;;;;;;-3.34;74.35;95235.22;4957560;28;20196;-81
2023/12/04 04:02:37;;;;;;;7.23;4.80;;;;;;;-3.27;74.08;95229.78;4953881;28;20180;-81
2023/12/04 04:05:03;;;;;;;8.57;5.53;;;;;;;-3.08;73.01;95219.56;4964738;28;20303;-81
2023/12/04 04:07:28;;;;;;;7.80;5.03;;;;;;;-3.17;73.44;95225.91;4975522;28;20218;-81
2023/12/04 04:09:53;;;;;;;6.00;4.73;;;;;;;-3.06;73.21;95224.56;4957712;28;20189;-80
2023/12/04 04:12:18;;;;;;;5.93;4.40;;;;;;;-3.02;72.46;95226.03;4957689;28;20330;-82
2023/12/04 04:14:44;;;;;;;6.07;3.90;;;;;;;-3.01;72.67;95225.16;4941379;28;20273;-82
2023/12/04 04:17:09;;;;;;;6.67;4.63;;;;;;;-2.93;72.05;95221.34;4940979;28;20256;-82
2023/12/04 04:19:35;;;;;;;6.30;4.43;;;;;;;-2.88;72.43;95233.84;4957707;28;20220;-83
2023/12/04 04:22:01;;;;;;;6.47;4.27;;;;;;;-2.91;72.13;95224.66;4954837;28;20185;-83
2023/12/04 04:24:26;;;;;;;6.97;4.70;;;;;;;-3.04;72.61;95221.03;4944909;28;20211;-81
2023/12/04 04:26:51;;;;;;;6.13;4.20;;;;;;;-2.96;73.15;95218.94;4974187;28;20252;-82
2023/12/04 04:29:17;;;;;;;6.23;4.03;;;;;;;-3.25;74.07;95220.34;4957397;28;20264;-83
2023/12/04 04:31:42;;;;;;;8.07;4.87;;;;;;;-2.96;72.86;95213.88;4957392;28;20216;-81
2023/12/04 04:34:07;;;;;;;7.97;5.50;;;;;;;-3.01;72.77;95222.59;4957434;28;20212;-82
2023/12/04 04:36:35;;;;;;;10.97;5.93;;;;;;;-2.94;73.13;95216.34;4960726;28;20365;-81
2023/12/04 04:39:00;;;;;;;7.53;4.60;;;;;;;-3.05;72.98;95206.69;4952853;28;20656;-82
2023/12/04 04:41:26;;;;;;;6.80;4.97;;;;;;;-2.96;72.83;95203.72;4957455;28;20276;-81
2023/12/04 04:43:51;;;;;;;5.50;4.33;;;;;;;-3.10;72.67;95211.16;4955671;28;20629;-81
2023/12/04 04:46:16;;;;;;;5.93;3.97;;;;;;;-2.94;72.80;95201.91;4965601;28;20666;-82
2023/12/04 04:48:42;;;;;;;6.03;4.23;;;;;;;-2.91;72.25;95198.41;4957454;28;20200;-80
2023/12/04 04:51:07;;;;;;;6.10;4.00;;;;;;;-2.90;72.37;95200.06;4942960;28;20224;-81
2023/12/04 04:53:33;;;;;;;5.27;4.00;;;;;;;-2.82;72.39;95195.44;4957057;28;20220;-82
2023/12/04 04:55:58;;;;;;;6.20;4.50;;;;;;;-2.86;72.49;95196.47;4965222;28;20185;-81
2023/12/04 04:58:24;;;;;;;7.07;4.67;;;;;;;-2.86;72.72;95193.91;4956573;28;20180;-81
2023/12/04 05:00:49;;;;;;;7.40;3.90;;;;;;;-2.93;72.54;95183.22;4962665;28;20200;-82
2023/12/04 05:03:14;;;;;;;5.37;3.83;;;;;;;-2.74;72.52;95184.84;4957055;28;20230;-81
2023/12/04 05:05:40;;;;;;;5.17;3.97;;;;;;;-2.81;72.85;95186.91;4960583;28;20317;-81
2023/12/04 05:08:05;;;;;;;5.80;3.87;;;;;;;-2.92;73.33;95174.69;4974227;28;20600;-81
2023/12/04 05:10:31;;;;;;;7.17;4.20;;;;;;;-2.81;72.69;95181.81;4959948;28;20184;-82
2023/12/04 05:12:56;;;;;;;5.57;3.80;;;;;;;-2.79;72.73;95180.00;4960784;28;20818;-81
2023/12/04 05:15:21;;;;;;;8.83;4.27;;;;;;;-2.87;72.39;95175.31;4960946;28;20193;-81
2023/12/04 05:17:47;;;;;;;5.00;3.63;;;;;;;-2.73;72.35;95161.94;4944462;28;20769;-82
2023/12/04 05:20:12;;;;;;;5.80;3.80;;;;;;;-2.78;72.53;95163.03;4944200;28;20196;-82
2023/12/04 05:22:37;;;;;;;4.90;3.57;;;;;;;-2.89;73.04;95171.22;4960406;28;20196;-80
2023/12/04 05:25:03;;;;;;;6.27;4.20;;;;;;;-2.91;73.52;95167.94;4947183;28;20313;-81
2023/12/04 05:27:28;;;;;;;6.73;4.23;;;;;;;-2.78;73.38;95163.88;4966553;28;20259;-81
2023/12/04 05:29:54;;;;;;;5.83;3.83;;;;;;;-2.69;73.10;95165.13;4955078;28;20287;-82
2023/12/04 05:32:19;;;;;;;6.20;4.23;;;;;;;-2.71;73.01;95166.94;4959344;28;20292;-82
2023/12/04 05:34:44;;;;;;;5.97;4.00;;;;;;;-2.70;73.04;95163.47;4961787;28;20212;-81
2023/12/04 05:37:10;;;;;;;4.83;3.33;;;;;;;-2.63;72.89;95164.81;4957639;28;20189;-82
2023/12/04 05:39:35;;;;;;;4.43;3.30;;;;;;;-2.68;72.97;95161.69;4943123;28;20280;-82
2023/12/04 05:42:00;;;;;;;5.23;3.97;;;;;;;-2.63;73.18;95160.56;4974670;28;20654;-81
2023/12/04 05:44:26;;;;;;;7.17;4.23;;;;;;;-2.48;72.83;95158.13;4940108;28;20681;-81
2023/12/04 05:46:52;;;;;;;5.70;4.13;;;;;;;-2.61;72.84;95158.75;4960321;28;20207;-82
2023/12/04 05:49:17;;;;;;;5.47;4.20;;;;;;;-2.47;72.65;95160.59;4958620;28;20192;-82
2023/12/04 05:51:42;;;;;;;5.13;3.30;;;;;;;-2.42;72.45;95155.28;4964439;28;20209;-82
2023/12/04 05:54:08;;;;;;;5.80;4.00;;;;;;;-2.60;73.87;95162.13;4958370;28;20233;-82
2023/12/04 05:56:34;;;;;;;6.83;3.80;;;;;;;-2.50;73.12;95165.00;4948520;28;20208;-81
2023/12/04 05:59:07;;;;;;;5.83;4.27;;;;;;;-2.45;72.63;95163.88;4965433;28;20185;-82
2023/12/04 06:01:33;;;;;;;6.23;4.30;;;;;;;-2.49;73.28;95164.94;4959688;28;20251;-81
2023/12/04 06:03:58;;;;;;;6.20;4.70;;;;;;;-2.45;73.20;95168.97;4959349;28;20221;-81
2023/12/04 06:06:23;;;;;;;7.57;4.43;;;;;;;-2.49;73.25;95174.28;4950935;28;20181;-81
2023/12/04 06:08:49;;;;;;;8.00;4.77;;;;;;;-2.45;73.48;95174.06;4969896;28;20367;-82
2023/12/04 06:11:14;;;;;;;7.10;4.70;;;;;;;-2.42;73.43;95170.53;4966613;28;20188;-80
2023/12/04 06:13:39;;;;;;;9.53;4.77;;;;;;;-2.57;74.50;95165.31;4959510;28;20212;-80
2023/12/04 06:16:05;;;;;;;7.33;5.50;;;;;;;-2.50;74.05;95159.91;4942272;28;20203;-81
2023/12/04 06:18:31;;;;;;;8.97;5.07;;;;;;;-2.39;73.84;95152.56;4975948;28;20344;-81
2023/12/04 06:20:56;;;;;;;7.33;4.57;;;;;;;-2.47;74.15;95150.44;4967535;28;20189;-80
2023/12/04 06:23:22;;;;;;;7.17;5.37;;;;;;;-2.42;73.95;95142.56;4959123;28;20213;-80
2023/12/04 06:25:47;;;;;;;8.93;4.57;;;;;;;-2.44;73.88;95139.28;4961627;28;20250;-79
2023/12/04 06:28:13;;;;;;;10.43;6.47;;;;;;;-2.61;74.34;95127.44;4966885;28;20201;-80
2023/12/04 06:30:38;;;;;;;8.57;5.77;;;;;;;-2.75;74.77;95115.41;4960702;28;20192;-81
2023/12/04 06:33:04;;;;;;;7.43;5.23;;;;;;;-2.68;74.39;95126.91;4959145;28;20231;-81
2023/12/04 06:35:30;;;;;;;7.47;4.67;;;;;;;-2.57;74.41;95122.09;4949551;28;20200;-81
2023/12/04 06:37:56;;;;;;;6.67;5.37;;;;;;;-2.49;74.59;95110.72;4957117;28;20217;-81
2023/12/04 06:40:22;;;;;;;8.17;5.17;;;;;;;-2.50;74.77;95109.91;4958176;28;20203;-80
2023/12/04 06:42:48;;;;;;;8.77;5.33;;;;;;;-2.44;74.78;95103.69;4961180;28;20639;-83
2023/12/04 06:45:14;;;;;;;8.63;6.03;;;;;;;-2.46;74.54;95113.13;4947327;28;20188;-82
2023/12/04 06:47:41;;;;;;;10.77;5.90;;;;;;;-2.60;74.98;95117.19;4951132;28;20247;-83
2023/12/04 06:50:07;;;;;;;9.23;5.70;;;;;;;-2.40;74.59;95110.22;4941407;28;20260;-80
2023/12/04 06:52:33;;;;;;;7.70;5.33;;;;;;;-2.59;75.55;95106.09;4970167;28;20213;-79
2023/12/04 06:54:58;;;;;;;8.67;5.00;;;;;;;-2.48;75.29;95102.19;4957019;28;20669;-80
2023/12/04 06:57:23;;;;;;;9.07;6.10;;;;;;;-2.57;75.75;95099.22;4964519;28;20205;-81
2023/12/04 06:59:49;;;;;;;9.77;6.97;;;;;;;-2.58;75.68;95094.22;4963575;28;20185;-81
2023/12/04 07:02:14;;;;;;;11.97;7.17;;;;;;;-2.54;75.51;95102.53;4960763;28;20236;-80
2023/12/04 07:04:40;;;;;;;15.97;9.37;;;;;;;-2.61;75.98;95087.56;4955460;28;20301;-80
2023/12/04 07:07:05;;;;;;;19.73;11.97;;;;;;;-2.62;76.09;95078.31;4940065;28;20568;-82
2023/12/04 07:09:32;;;;;;;10.33;6.60;;;;;;;-2.59;76.18;95075.59;4943238;28;20609;-80
2023/12/04 07:11:57;;;;;;;7.47;6.00;;;;;;;-2.61;76.52;95082.50;4961466;28;20307;-80
2023/12/04 07:14:23;;;;;;;8.37;5.73;;;;;;;-2.53;76.55;95071.94;4954589;28;20690;-80
2023/12/04 07:16:49;;;;;;;9.37;6.00;;;;;;;-2.60;76.46;95071.41;4957105;28;20271;-80
2023/12/04 07:19:16;;;;;;;8.93;5.73;;;;;;;-2.51;76.47;95061.66;4941166;28;20184;-80
2023/12/04 07:21:41;;;;;;;8.93;5.97;;;;;;;-2.53;76.81;95069.38;4957882;28;20363;-80
2023/12/04 07:24:07;;;;;;;7.13;5.33;;;;;;;-2.47;76.05;95086.88;4950565;28;20263;-79
2023/12/04 07:26:33;;;;;;;10.27;6.37;;;;;;;-2.52;75.70;95070.19;4973504;28;20539;-81
2023/12/04 07:28:58;;;;;;;9.67;6.93;;;;;;;-2.31;75.23;95076.69;4957568;28;20251;-80
2023/12/04 07:31:24;;;;;;;9.47;6.10;;;;;;;-2.36;74.99;95078.66;4949336;28;20217;-80
2023/12/04 07:33:49;;;;;;;7.83;5.60;;;;;;;-2.24;74.42;95075.47;4954849;28;20209;-81
2023/12/04 07:36:14;;;;;;;9.20;5.93;;;;;;;-2.18;73.99;95072.59;4940268;28;20770;-79
2023/12/04 07:38:40;;;;;;;9.00;5.47;;;;;;;-2.23;74.37;95082.19;4960488;28;20173;-80
2023/12/04 07:41:05;;;;;;;7.27;5.60;;;;;;;-2.19;74.19;95078.59;4949241;28;20216;-80
2023/12/04 07:43:31;;;;;;;9.00;6.00;;;;;;;-2.06;73.81;95087.19;4976417;28;20558;-81
2023/12/04 07:45:57;;;;;;;8.20;5.23;;;;;;;-2.48;75.16;95099.63;4966198;28;20185;-80
2023/12/04 07:48:22;;;;;;;6.97;5.13;;;;;;;-2.23;74.37;95116.97;4941754;28;20189;-80
2023/12/04 07:50:48;;;;;;;9.00;5.70;;;;;;;-1.98;74.60;95099.50;4960132;28;20184;-81
2023/12/04 07:53:13;;;;;;;6.97;5.50;;;;;;;-1.81;73.69;95093.50;4951049;28;20212;-80
2023/12/04 07:55:39;;;;;;;7.97;4.90;;;;;;;-1.65;73.87;95096.84;4941899;28;20193;-81
2023/12/04 07:58:04;;;;;;;7.57;5.03;;;;;;;-1.57;73.81;95087.06;4955715;28;20189;-81
2023/12/04 08:00:30;;;;;;;8.10;5.60;;;;;;;-1.51;73.15;95086.69;4963076;28;20656;-80
2023/12/04 08:02:55;;;;;;;7.87;5.30;;;;;;;-1.60;73.73;95077.03;4948976;28;20213;-79
2023/12/04 08:05:21;;;;;;;8.07;5.70;;;;;;;-1.45;73.57;95063.44;4957214;28;20193;-80
2023/12/04 08:07:47;;;;;;;8.63;5.40;;;;;;;-1.51;74.04;95065.50;4943607;28;20270;-80
2023/12/04 08:10:12;;;;;;;9.00;5.67;;;;;;;-1.45;73.71;95070.25;4975693;28;20195;-81
2023/12/04 08:12:38;;;;;;;7.37;5.50;;;;;;;-1.32;73.65;95062.75;4941388;28;20214;-80
2023/12/04 08:15:04;;;;;;;8.27;5.13;;;;;;;-1.24;73.74;95069.00;4945374;28;20197;-81
2023/12/04 08:17:30;;;;;;;9.67;6.90;;;;;;;-1.26;73.20;95058.09;4957394;28;20207;-80
2023/12/04 08:19:55;;;;;;;8.07;5.60;;;;;;;-1.23;72.61;95059.69;4958082;28;20276;-80
2023/12/04 08:22:21;;;;;;;7.67;5.17;;;;;;;-1.12;72.38;95062.41;4957773;28;20182;-82
2023/12/04 08:24:46;;;;;;;9.50;4.87;;;;;;;-1.04;72.03;95065.34;4953338;28;20208;-80
2023/12/04 08:27:11;;;;;;;8.40;5.27;;;;;;;-1.08;71.50;95048.56;4956144;28;20279;-80
2023/12/04 08:29:39;;;;;;;7.40;5.33;;;;;;;-1.06;71.33;95041.69;4957354;28;20192;-81
2023/12/04 08:32:05;;;;;;;8.43;5.33;;;;;;;-0.87;70.81;95032.03;4964271;28;20204;-81
2023/12/04 08:34:30;;;;;;;8.30;5.30;;;;;;;-0.81;71.03;95032.56;4956257;28;20279;-81
2023/12/04 08:36:55;;;;;;;7.50;5.40;;;;;;;-0.64;70.02;95037.47;4965286;28;20194;-81
2023/12/04 08:39:22;;;;;;;8.57;5.47;;;;;;;-0.46;70.15;95038.91;4935791;28;20241;-82
2023/12/04 08:41:47;;;;;;;6.43;4.57;;;;;;;-0.40;70.04;95040.28;4958873;28;20200;-81
2023/12/04 08:44:13;;;;;;;7.27;4.80;;;;;;;-0.47;69.23;95050.03;4967344;28;20251;-81
2023/12/04 08:46:39;;;;;;;8.73;5.40;;;;;;;-0.56;69.35;95045.47;4943545;28;20694;-79
2023/12/04 08:49:04;;;;;;;8.30;5.67;;;;;;;-0.45;69.52;95050.75;4960235;28;20261;-81
2023/12/04 08:51:30;;;;;;;7.90;5.67;;;;;;;-0.36;69.56;95054.47;4967208;28;20267;-81
2023/12/04 08:53:56;;;;;;;7.10;5.37;;;;;;;-0.82;69.92;95051.31;4955045;28;20235;-81
2023/12/04 08:56:21;;;;;;;7.17;5.30;;;;;;;-0.35;69.26;95048.47;4961754;28;20720;-82
2023/12/04 08:58:46;;;;;;;8.43;5.03;;;;;;;-0.43;68.82;95048.94;4976707;28;20207;-81
2023/12/04 09:01:12;;;;;;;6.53;4.57;;;;;;;-0.35;68.48;95046.75;4968220;28;20193;-81
2023/12/04 09:03:37;;;;;;;9.63;5.90;;;;;;;-0.24;68.00;95045.25;4964667;28;20240;-81
2023/12/04 09:06:03;;;;;;;7.23;5.10;;;;;;;-0.34;68.93;95040.72;4962988;28;20293;-82
2023/12/04 09:08:28;;;;;;;7.37;4.23;;;;;;;-0.41;68.74;95051.38;4959922;28;20197;-81
2023/12/04 09:10:54;;;;;;;6.63;4.97;;;;;;;-0.37;68.66;95040.88;4963379;28;20193;-82
2023/12/04 09:13:19;;;;;;;7.50;5.27;;;;;;;-0.63;69.42;95062.88;4961582;28;20227;-80
2023/12/04 09:15:44;;;;;;;8.23;5.10;;;;;;;-0.43;69.40;95055.78;4947291;28;20195;-81
2023/12/04 09:18:10;;;;;;;7.97;4.80;;;;;;;-0.71;69.38;95062.50;4960881;28;20433;-81
2023/12/04 09:20:35;;;;;;;8.50;4.93;;;;;;;-0.44;68.52;95064.31;4945889;28;20223;-80
2023/12/04 09:23:01;;;;;;;5.10;4.13;;;;;;;-0.36;68.06;95078.25;4968332;28;20629;-78
2023/12/04 09:25:26;;;;;;;5.63;4.30;;;;;;;-0.32;68.34;95071.25;4966547;28;20193;-82
2023/12/04 09:27:52;;;;;;;6.63;4.13;;;;;;;-0.17;67.48;95084.81;4959680;28;20684;-81
2023/12/04 09:30:17;;;;;;;6.10;4.10;;;;;;;-0.03;68.21;95069.44;4943210;28;20188;-80
2023/12/04 09:32:43;;;;;;;6.20;4.33;;;;;;;0.00;67.81;95076.94;4959940;28;20219;-80
2023/12/04 09:35:09;;;;;;;6.80;4.60;;;;;;;-0.01;68.69;95080.38;4964327;28;20198;-80
2023/12/04 09:37:34;;;;;;;5.33;3.80;;;;;;;0.10;67.99;95070.31;4961803;28;20206;-79
2023/12/04 09:40:00;;;;;;;15.23;9.97;;;;;;;0.32;67.73;95066.41;4960854;28;20192;-80
2023/12/04 09:42:30;;;;;;;7.50;6.00;;;;;;;0.38;67.27;95068.59;4952970;28;20212;-81
2023/12/04 09:44:55;;;;;;;5.77;4.57;;;;;;;0.57;66.96;95061.38;4960264;28;20790;-80
2023/12/04 09:47:21;;;;;;;6.13;4.33;;;;;;;0.65;66.64;95056.59;4943911;28;20282;-80
2023/12/04 09:49:47;;;;;;;6.00;3.93;;;;;;;0.68;66.47;95056.38;4960285;28;20571;-81
2023/12/04 09:52:12;;;;;;;6.97;5.23;;;;;;;0.70;67.49;95044.31;4947419;28;20724;-81
2023/12/04 09:54:38;;;;;;;8.87;5.60;;;;;;;0.58;68.55;95042.56;4961299;28;20211;-79
2023/12/04 09:57:05;;;;;;;7.13;5.07;;;;;;;0.60;68.60;95043.28;4961486;28;20195;-81
2023/12/04 09:59:30;;;;;;;6.77;4.87;;;;;;;0.43;69.57;95048.66;4945686;28;20196;-81
2023/12/04 10:01:57;;;;;;;7.20;5.00;;;;;;;0.53;70.11;95044.59;4960585;28;20676;-80
2023/12/04 10:04:22;;;;;;;7.53;5.00;;;;;;;0.61;70.47;95041.53;4954770;28;20224;-80
2023/12/04 10:06:52;;;;;;;5.80;4.50;;;;;;;0.77;70.07;95039.63;4960272;28;20198;-81
2023/12/04 10:09:18;;;;;;;7.83;5.00;;;;;;;0.93;70.59;95047.09;4961727;28;20195;-81
2023/12/04 10:11:47;;;;;;;8.90;5.77;;;;;;;1.01;71.75;95050.78;4944459;28;20201;-81
2023/12/04 10:14:19;;;;;;;6.90;4.50;;;;;;;1.12;72.90;95050.06;4961395;28;20235;-81
2023/12/04 10:16:45;;;;;;;7.50;5.00;;;;;;;1.04;72.98;95057.44;4962030;28;20184;-81
2023/12/04 10:19:26;;;;;;;6.47;4.77;;;;;;;1.14;72.61;95049.03;4971619;28;20196;-81
2023/12/04 10:21:52;;;;;;;6.80;5.37;;;;;;;0.93;72.88;95042.00;4956971;28;20189;-81
2023/12/04 10:24:38;;;;;;;8.07;6.07;;;;;;;0.81;72.51;95029.09;4962845;28;20258;-82
2023/12/04 10:27:17;;;;;;;8.37;6.13;;;;;;;0.80;72.98;95024.09;4960373;28;20682;-81
2023/12/04 10:29:48;;;;;;;7.60;5.67;;;;;;;0.75;72.43;95011.63;4945483;28;20203;-81
2023/12/04 10:32:13;;;;;;;6.87;5.17;;;;;;;1.11;72.00;95015.19;4946475;28;20683;-81
2023/12/04 10:34:42;;;;;;;7.13;5.50;;;;;;;1.32;72.06;95006.03;4962346;28;20212;-81
2023/12/04 10:37:09;;;;;;;7.27;5.43;;;;;;;1.27;71.97;94997.88;4969749;28;20560;-81
2023/12/04 10:39:50;;;;;;;6.47;4.97;;;;;;;1.26;71.72;94995.44;4973753;28;20199;-81
2023/12/04 10:42:30;;;;;;;8.30;4.90;;;;;;;1.16;72.12;94982.47;4972338;28;20196;-80
2023/12/04 10:44:57;;;;;;;6.47;4.77;;;;;;;1.20;71.91;94976.22;4942812;28;20208;-81
2023/12/04 10:47:22;;;;;;;5.83;4.90;;;;;;;1.29;71.24;94967.09;4959845;28;20187;-79
2023/12/04 10:49:49;;;;;;;7.10;5.13;;;;;;;1.07;71.19;94967.75;4944571;28;20192;-80
2023/12/04 10:52:14;;;;;;;5.63;4.83;;;;;;;1.31;70.41;94968.59;4959352;28;20593;-81
2023/12/04 10:54:40;;;;;;;6.50;4.87;;;;;;;0.97;71.24;94967.56;4944667;28;20219;-82
2023/12/04 10:57:05;;;;;;;6.90;4.90;;;;;;;1.36;70.34;94966.56;4969134;28;20673;-80
2023/12/04 10:59:36;;;;;;;6.93;4.93;;;;;;;1.30;71.09;94966.16;4960015;28;20203;-81
2023/12/04 11:02:05;;;;;;;6.90;4.97;;;;;;;1.19;72.07;94969.47;4943674;28;20223;-81
2023/12/04 11:04:32;;;;;;;9.00;5.23;;;;;;;1.12;72.97;94968.22;4964170;28;20263;-81
2023/12/04 11:06:59;;;;;;;6.93;4.63;;;;;;;1.41;72.40;94968.78;4961146;28;20196;-81
2023/12/04 11:09:26;;;;;;;10.70;6.80;;;;;;;1.42;73.18;94966.16;4961038;28;20224;-80
2023/12/04 11:11:57;;;;;;;5.90;4.37;;;;;;;1.36;73.93;94956.31;4973179;28;20216;-81
2023/12/04 11:14:27;;;;;;;11.77;7.13;;;;;;;1.44;75.00;94953.25;4978591;28;20235;-81
2023/12/04 11:16:57;;;;;;;6.63;4.23;;;;;;;1.50;75.33;94946.84;4993255;28;20240;-80
2023/12/04 11:19:50;;;;;;;7.17;5.13;;;;;;;1.56;76.38;94956.66;4970491;28;20181;-80
2023/12/04 11:22:20;;;;;;;6.33;4.70;;;;;;;1.27;78.54;94951.84;4966535;28;20188;-80
2023/12/04 11:24:47;;;;;;;9.80;5.50;;;;;;;1.24;80.08;94941.84;4976366;28;20236;-81
2023/12/04 11:27:12;;;;;;;11.93;7.63;;;;;;;1.23;80.22;94927.38;4959583;28;20279;-81
2023/12/04 11:29:39;;;;;;;13.07;7.73;;;;;;;1.35;79.87;94926.56;4961314;28;20177;-82